createdAt,value
2018-12-04T00:02:07.249Z,87.87
2018-12-04T00:04:36.079Z,80.40
2018-12-04T00:07:05.106Z,87.67
2018-12-04T00:09:34.135Z,83.43
2018-12-04T00:12:03.495Z,83.77
2018-12-04T00:14:32.518Z,77.50
2018-12-04T00:17:01.364Z,80.43
2018-12-04T00:19:30.395Z,72.07
2018-12-04T00:21:59.383Z,74.17
2018-12-04T00:24:28.291Z,68.27
2018-12-04T00:26:57.228Z,63.73
2018-12-04T00:29:26.045Z,65.40
2018-12-04T00:31:55.066Z,71.30
2018-12-04T00:34:24.090Z,72.27
2018-12-04T00:36:52.990Z,70.80
2018-12-04T00:39:21.884Z,69.77
2018-12-04T00:41:50.954Z,73.50
2018-12-04T00:44:19.770Z,76.20
2018-12-04T00:46:48.596Z,77.53
2018-12-04T00:49:17.621Z,72.47
2018-12-04T00:51:46.431Z,67.83
2018-12-04T00:54:15.343Z,69.90
2018-12-04T00:56:44.389Z,69.73
2018-12-04T00:59:13.206Z,71.00
2018-12-04T01:01:42.072Z,69.87
2018-12-04T01:04:10.968Z,77.47
2018-12-04T01:06:39.859Z,73.97
2018-12-04T01:09:10.434Z,79.10
2018-12-04T01:11:39.741Z,73.20
2018-12-04T01:14:08.774Z,72.47
2018-12-04T01:16:37.712Z,72.50
2018-12-04T01:19:06.719Z,74.50
2018-12-04T01:21:35.754Z,68.37
2018-12-04T01:24:04.785Z,69.37
2018-12-04T01:26:33.699Z,68.00
2018-12-04T01:29:02.534Z,65.10
2018-12-04T01:31:31.484Z,65.10
2018-12-04T01:34:00.580Z,70.37
2018-12-04T01:36:29.385Z,65.97
2018-12-04T01:38:58.306Z,62.57
2018-12-04T01:41:27.313Z,60.83
2018-12-04T01:43:56.125Z,54.43
2018-12-04T01:46:25.154Z,57.53
2018-12-04T01:48:54.064Z,62.17
2018-12-04T01:51:23.015Z,56.87
2018-12-04T01:53:52.026Z,62.13
2018-12-04T01:56:20.917Z,54.63
2018-12-04T01:58:50.265Z,55.53
2018-12-04T02:01:19.070Z,54.77
2018-12-04T02:03:48.139Z,58.07
2018-12-04T02:06:17.073Z,61.80
2018-12-04T02:08:46.091Z,58.30
2018-12-04T02:11:15.025Z,59.13
2018-12-04T02:13:44.040Z,57.87
2018-12-04T02:16:12.867Z,59.50
2018-12-04T02:18:41.777Z,57.90
2018-12-04T02:21:10.689Z,61.00
2018-12-04T02:23:41.864Z,57.80
2018-12-04T02:26:10.804Z,59.80
2018-12-04T02:28:40.597Z,57.63
2018-12-04T02:31:10.328Z,56.37
2018-12-04T02:33:39.158Z,56.17
2018-12-04T02:36:08.725Z,60.97
2018-12-04T02:38:37.970Z,56.63
2018-12-04T02:41:07.526Z,58.73
2018-12-04T02:43:36.441Z,57.67
2018-12-04T02:46:05.358Z,53.33
2018-12-04T02:48:38.255Z,60.43
2018-12-04T02:51:07.380Z,58.80
2018-12-04T02:53:36.295Z,59.57
2018-12-04T02:56:05.292Z,60.40
2018-12-04T02:58:34.398Z,55.23
2018-12-04T03:01:03.300Z,59.53
2018-12-04T03:03:32.190Z,60.80
2018-12-04T03:06:01.083Z,59.20
2018-12-04T03:08:29.982Z,61.23
2018-12-04T03:10:58.886Z,65.57
2018-12-04T03:13:27.980Z,66.20
2018-12-04T03:15:56.777Z,61.37
2018-12-04T03:18:25.680Z,59.87
2018-12-04T03:20:54.512Z,67.30
2018-12-04T03:23:23.409Z,71.73
2018-12-04T03:25:52.306Z,61.10
2018-12-04T03:28:21.207Z,61.90
2018-12-04T03:30:50.107Z,61.10
2018-12-04T03:33:40.130Z,59.50
2018-12-04T03:36:09.048Z,60.40
2018-12-04T03:38:37.836Z,62.73
2018-12-04T03:41:06.761Z,71.13
2018-12-04T03:43:35.665Z,62.60
2018-12-04T03:46:04.623Z,65.83
2018-12-04T03:48:33.512Z,69.83
2018-12-04T03:51:02.370Z,65.63
2018-12-04T03:53:31.367Z,66.57
2018-12-04T03:56:00.178Z,69.47
2018-12-04T03:58:29.090Z,72.60
2018-12-04T04:00:58.123Z,64.97
2018-12-04T04:03:26.942Z,67.03
2018-12-04T04:05:55.865Z,70.20
2018-12-04T04:08:24.814Z,61.77
2018-12-04T04:10:53.649Z,67.00
2018-12-04T04:13:22.664Z,68.23
2018-12-04T04:15:51.602Z,69.90
2018-12-04T04:18:20.622Z,74.80
2018-12-04T04:20:49.499Z,66.43
2018-12-04T04:23:18.381Z,73.03
2018-12-04T04:25:47.295Z,68.77
2018-12-04T04:28:16.407Z,64.87
2018-12-04T04:30:45.445Z,69.90
2018-12-04T04:33:14.253Z,74.03
2018-12-04T04:35:43.169Z,66.37
2018-12-04T04:38:12.073Z,64.53
2018-12-04T04:40:41.023Z,69.80
2018-12-04T04:43:09.920Z,69.93
2018-12-04T04:45:38.966Z,68.73
2018-12-04T04:48:07.970Z,68.93
2018-12-04T04:50:36.869Z,67.17
2018-12-04T04:53:05.683Z,68.67
2018-12-04T04:55:34.589Z,64.43
2018-12-04T04:58:03.522Z,66.33
2018-12-04T05:00:32.329Z,65.20
2018-12-04T05:03:01.138Z,67.37
2018-12-04T05:05:34.566Z,71.70
2018-12-04T05:08:03.529Z,70.50
2018-12-04T05:10:32.457Z,66.47
2018-12-04T05:13:01.405Z,66.70
2018-12-04T05:15:30.482Z,69.93
2018-12-04T05:17:59.309Z,75.93
2018-12-04T05:20:28.335Z,76.67
2018-12-04T05:22:57.373Z,76.50
2018-12-04T05:25:26.318Z,78.13
2018-12-04T05:27:55.141Z,78.43
2018-12-04T05:30:24.073Z,73.00
2018-12-04T05:32:52.876Z,76.70
2018-12-04T05:35:21.770Z,94.67
2018-12-04T05:37:50.778Z,92.53
2018-12-04T05:40:20.382Z,116.17
2018-12-04T05:42:49.460Z,101.90
2018-12-04T05:45:18.850Z,94.47
2018-12-04T05:47:47.661Z,93.10
2018-12-04T05:50:17.230Z,100.57
2018-12-04T05:52:56.012Z,107.70
2018-12-04T05:55:24.834Z,119.77
2018-12-04T05:57:53.737Z,127.80
2018-12-04T06:00:22.697Z,145.30
2018-12-04T06:02:51.601Z,158.40
2018-12-04T06:05:20.509Z,221.57
2018-12-04T06:07:49.469Z,232.10
2018-12-04T06:10:18.392Z,197.70
2018-12-04T06:12:47.195Z,176.07
2018-12-04T06:15:16.442Z,170.23
2018-12-04T06:17:45.401Z,193.97
2018-12-04T06:20:14.469Z,223.77
2018-12-04T06:22:43.549Z,183.00
2018-12-04T06:25:12.437Z,186.53
2018-12-04T06:27:41.367Z,189.20
2018-12-04T06:30:10.368Z,166.67
2018-12-04T06:32:39.460Z,138.80
2018-12-04T06:35:08.420Z,148.97
2018-12-04T06:37:37.375Z,147.60
2018-12-04T06:40:06.389Z,145.20
2018-12-04T06:42:35.386Z,134.93
2018-12-04T06:45:04.881Z,135.23
2018-12-04T06:47:33.857Z,132.43
2018-12-04T06:50:03.906Z,127.03
2018-12-04T06:52:33.015Z,138.93
2018-12-04T06:55:01.933Z,158.10
2018-12-04T06:57:31.863Z,167.07
2018-12-04T07:00:00.799Z,167.33
2018-12-04T07:02:29.919Z,156.33
2018-12-04T07:04:58.825Z,139.07
2018-12-04T07:07:27.731Z,124.67
2018-12-04T07:09:56.637Z,122.23
2018-12-04T07:12:25.565Z,105.70
2018-12-04T07:14:54.681Z,99.50
2018-12-04T07:17:23.483Z,101.67
2018-12-04T07:19:52.505Z,99.80
2018-12-04T07:22:21.312Z,102.23
2018-12-04T07:24:50.212Z,105.83
2018-12-04T07:27:19.271Z,106.67
2018-12-04T07:29:48.165Z,114.30
2018-12-04T07:32:17.073Z,111.87
2018-12-04T07:34:45.881Z,113.20
2018-12-04T07:37:15.200Z,123.27
2018-12-04T07:39:44.298Z,92.87
2018-12-04T07:42:13.137Z,95.00
2018-12-04T07:44:41.959Z,89.17
2018-12-04T07:47:10.863Z,89.40
2018-12-04T07:49:39.811Z,86.43
2018-12-04T07:52:08.865Z,91.20
2018-12-04T07:54:37.653Z,91.83
2018-12-04T07:57:06.487Z,87.40
2018-12-04T07:59:35.365Z,99.40
2018-12-04T08:02:04.234Z,102.63
2018-12-04T08:04:33.256Z,87.97
2018-12-04T08:07:02.199Z,91.93
2018-12-04T08:09:31.268Z,84.17
2018-12-04T08:12:00.274Z,83.67
2018-12-04T08:14:29.271Z,81.77
2018-12-04T08:16:58.215Z,76.43
2018-12-04T08:19:27.051Z,81.70
2018-12-04T08:21:55.907Z,84.00
2018-12-04T08:24:24.832Z,80.70
2018-12-04T08:26:53.647Z,78.77
2018-12-04T08:29:22.567Z,69.83
2018-12-04T08:31:51.567Z,70.23
2018-12-04T08:34:20.585Z,62.73
2018-12-04T08:36:49.522Z,59.60
2018-12-04T08:39:18.493Z,60.80
2018-12-04T08:41:47.410Z,67.10
2018-12-04T08:44:16.226Z,59.87
2018-12-04T08:46:45.151Z,61.30
2018-12-04T08:49:14.134Z,61.57
2018-12-04T08:51:42.966Z,55.07
2018-12-04T08:54:11.870Z,55.23
2018-12-04T08:56:40.884Z,57.80
2018-12-04T08:59:09.721Z,55.73
2018-12-04T09:01:38.539Z,56.63
2018-12-04T09:04:07.533Z,75.57
2018-12-04T09:06:36.648Z,60.60
2018-12-04T09:09:08.850Z,89.33
2018-12-04T09:11:37.680Z,74.30
2018-12-04T09:14:06.891Z,64.70
2018-12-04T09:16:35.838Z,68.93
2018-12-04T09:19:04.754Z,63.67
2018-12-04T09:21:33.861Z,65.93
2018-12-04T09:24:02.924Z,62.30
2018-12-04T09:26:32.007Z,49.83
2018-12-04T09:29:00.930Z,58.57
2018-12-04T09:31:29.859Z,53.50
2018-12-04T09:33:58.858Z,50.40
2018-12-04T09:36:27.801Z,62.43
2018-12-04T09:38:56.720Z,47.37
2018-12-04T09:41:32.239Z,68.63
2018-12-04T09:44:01.089Z,57.77
2018-12-04T09:46:30.145Z,60.80
2018-12-04T09:48:59.148Z,65.63
2018-12-04T09:51:28.185Z,73.03
2018-12-04T09:53:57.111Z,59.40
2018-12-04T09:56:26.141Z,61.80
2018-12-04T09:58:55.065Z,62.83
2018-12-04T10:01:24.026Z,66.47
2018-12-04T10:03:53.003Z,72.83
2018-12-04T10:06:21.937Z,64.40
2018-12-04T10:08:50.808Z,67.73
2018-12-04T10:11:19.729Z,87.53
2018-12-04T10:13:48.732Z,74.27
2018-12-04T10:16:17.667Z,77.20
2018-12-04T10:18:47.796Z,86.10
2018-12-04T10:21:16.912Z,83.13
2018-12-04T10:23:45.871Z,67.70
2018-12-04T10:26:14.931Z,62.10
2018-12-04T10:28:43.959Z,58.13
2018-12-04T10:31:12.982Z,73.17
2018-12-04T10:33:42.159Z,64.63
2018-12-04T10:36:12.052Z,57.27
2018-12-04T10:38:41.053Z,63.87
2018-12-04T10:41:10.250Z,219.33
2018-12-04T10:43:39.172Z,90.90
2018-12-04T10:46:08.065Z,83.70
2018-12-04T10:48:37.086Z,63.50
2018-12-04T10:51:06.230Z,59.70
2018-12-04T10:53:35.187Z,57.60
2018-12-04T10:56:04.131Z,57.00
2018-12-04T10:58:33.148Z,55.57
2018-12-04T11:01:06.545Z,55.63
2018-12-04T11:03:37.467Z,58.60
2018-12-04T11:06:06.947Z,54.00
2018-12-04T11:08:35.989Z,55.23
2018-12-04T11:11:04.785Z,52.23
2018-12-04T11:13:33.747Z,61.47
2018-12-04T11:16:03.017Z,64.00
2018-12-04T11:18:31.940Z,70.27
2018-12-04T11:21:01.647Z,67.47
2018-12-04T11:23:30.901Z,71.37
2018-12-04T11:25:59.755Z,71.97
2018-12-04T11:28:28.780Z,64.57
2018-12-04T11:30:57.792Z,59.10
2018-12-04T11:33:26.809Z,56.83
2018-12-04T11:35:55.811Z,59.03
2018-12-04T11:38:24.739Z,49.07
2018-12-04T11:40:53.918Z,48.27
2018-12-04T11:43:22.708Z,38.27
2018-12-04T11:45:51.663Z,38.10
2018-12-04T11:48:20.485Z,35.20
2018-12-04T11:50:49.383Z,39.90
2018-12-04T11:53:18.447Z,37.27
2018-12-04T11:55:47.321Z,35.37
2018-12-04T11:58:16.233Z,34.90
2018-12-04T12:00:45.201Z,32.77
2018-12-04T12:03:14.039Z,31.37
2018-12-04T12:05:42.968Z,31.40
2018-12-04T12:08:11.870Z,32.63
2018-12-04T12:10:40.744Z,30.23
2018-12-04T12:13:09.957Z,31.43
2018-12-04T12:15:39.009Z,35.33
2018-12-04T12:18:08.049Z,39.63
2018-12-04T12:20:36.858Z,39.13
2018-12-04T12:23:05.669Z,39.33
2018-12-04T12:25:34.575Z,41.33
2018-12-04T12:28:03.707Z,41.37
2018-12-04T12:30:33.309Z,45.83
2018-12-04T12:33:02.127Z,51.00
2018-12-04T12:35:31.174Z,50.47
2018-12-04T12:38:00.188Z,53.67
2018-12-04T12:40:31.208Z,42.53
2018-12-04T12:43:00.145Z,43.40
2018-12-04T12:45:29.133Z,43.07
2018-12-04T12:47:58.073Z,36.10
2018-12-04T12:50:26.920Z,49.37
2018-12-04T12:52:55.865Z,41.27
2018-12-04T12:55:24.941Z,51.77
2018-12-04T12:57:54.061Z,46.40
2018-12-04T13:00:23.001Z,42.40
2018-12-04T13:02:52.253Z,42.77
2018-12-04T13:05:21.281Z,40.20
2018-12-04T13:07:53.173Z,38.50
2018-12-04T13:10:22.242Z,37.97
2018-12-04T13:12:51.337Z,41.50
2018-12-04T13:15:20.452Z,40.73
2018-12-04T13:17:49.359Z,40.60
2018-12-04T13:20:19.234Z,40.57
2018-12-04T13:22:48.561Z,48.13
2018-12-04T13:25:17.498Z,45.47
2018-12-04T13:27:46.551Z,46.70
2018-12-04T13:30:15.804Z,45.70
2018-12-04T13:32:44.885Z,46.60
2018-12-04T13:35:13.757Z,46.87
2018-12-04T13:37:42.937Z,46.50
2018-12-04T13:40:13.341Z,42.87
2018-12-04T13:42:42.913Z,44.70
2018-12-04T13:45:12.291Z,45.90
2018-12-04T13:47:42.018Z,38.87
2018-12-04T13:50:11.732Z,45.77
2018-12-04T13:52:41.206Z,44.10
2018-12-04T13:55:10.330Z,45.33
2018-12-04T13:57:39.542Z,47.07
2018-12-04T14:00:09.172Z,43.10
2018-12-04T14:02:38.596Z,50.03
2018-12-04T14:05:09.008Z,51.03
2018-12-04T14:07:38.762Z,52.27
2018-12-04T14:10:09.268Z,57.57
2018-12-04T14:12:38.299Z,57.33
2018-12-04T14:15:07.660Z,60.83
2018-12-04T14:17:37.318Z,61.10
2018-12-04T14:20:07.959Z,72.10
2018-12-04T14:22:37.080Z,67.37
2018-12-04T14:25:06.330Z,80.53
2018-12-04T14:27:35.952Z,65.73
2018-12-04T14:30:08.877Z,74.47
2018-12-04T14:32:37.908Z,72.43
2018-12-04T14:35:07.063Z,70.90
2018-12-04T14:37:36.307Z,82.00
2018-12-04T14:40:06.310Z,88.53
2018-12-04T14:42:35.586Z,84.80
2018-12-04T14:45:05.768Z,91.20
2018-12-04T14:47:34.773Z,83.47
2018-12-04T14:50:05.098Z,86.33
2018-12-04T14:52:34.276Z,91.40
2018-12-04T14:55:03.726Z,89.30
2018-12-04T14:57:32.716Z,90.90
2018-12-04T15:00:02.066Z,89.20
2018-12-04T15:02:31.104Z,85.70
2018-12-04T15:05:00.686Z,80.77
2018-12-04T15:07:29.617Z,79.27
2018-12-04T15:09:58.900Z,83.37
2018-12-04T15:12:27.998Z,86.83
2018-12-04T15:14:57.092Z,92.43
2018-12-04T15:17:26.914Z,88.50
2018-12-04T15:19:56.316Z,91.77
2018-12-04T15:22:25.503Z,91.40
2018-12-04T15:24:54.983Z,89.20
2018-12-04T15:27:24.688Z,111.17
2018-12-04T15:29:54.253Z,115.23
2018-12-04T15:32:23.791Z,109.80
2018-12-04T15:34:53.623Z,123.90
2018-12-04T15:37:22.989Z,111.90
2018-12-04T15:39:52.802Z,110.73
2018-12-04T15:42:21.999Z,122.83
2018-12-04T15:44:51.527Z,128.63
2018-12-04T15:47:20.800Z,115.33
2018-12-04T15:49:50.400Z,149.23
2018-12-04T15:52:19.749Z,130.73
2018-12-04T15:54:48.781Z,124.50
2018-12-04T15:57:17.898Z,133.50
2018-12-04T15:59:47.110Z,141.67
2018-12-04T16:02:16.030Z,143.23
2018-12-04T16:04:45.465Z,150.63
2018-12-04T16:07:14.376Z,138.00
2018-12-04T16:09:43.248Z,150.27
2018-12-04T16:12:12.790Z,166.27
2018-12-04T16:14:41.728Z,187.10
2018-12-04T16:17:15.222Z,192.07
2018-12-04T16:19:41.626Z,183.67
2018-12-04T16:22:10.703Z,164.53
2018-12-04T16:24:39.761Z,179.90
2018-12-04T16:27:08.872Z,192.67
2018-12-04T16:29:37.909Z,204.70
2018-12-04T16:32:07.163Z,205.43
2018-12-04T16:34:36.733Z,185.30
2018-12-04T16:37:05.870Z,174.33
2018-12-04T16:39:34.959Z,181.17
2018-12-04T16:42:04.179Z,176.80
2018-12-04T16:44:33.329Z,182.70
2018-12-04T16:47:02.235Z,178.03
2018-12-04T16:49:31.153Z,213.90
2018-12-04T16:52:00.627Z,224.93
2018-12-04T16:54:30.086Z,224.67
2018-12-04T16:56:59.109Z,236.10
2018-12-04T16:59:28.465Z,262.07
2018-12-04T17:01:57.512Z,253.07
2018-12-04T17:04:26.468Z,251.80
2018-12-04T17:06:55.899Z,252.57
2018-12-04T17:09:25.302Z,244.23
2018-12-04T17:11:54.399Z,231.17
2018-12-04T17:14:23.496Z,228.43
2018-12-04T17:16:52.398Z,249.17
2018-12-04T17:19:21.462Z,274.47
2018-12-04T17:21:50.471Z,293.77
2018-12-04T17:24:19.572Z,315.30
2018-12-04T17:26:48.664Z,310.73
2018-12-04T17:29:17.681Z,328.37
2018-12-04T17:31:46.805Z,296.73
2018-12-04T17:34:16.126Z,272.60
2018-12-04T17:36:45.029Z,284.63
2018-12-04T17:39:14.022Z,289.50
2018-12-04T17:41:42.949Z,280.03
2018-12-04T17:44:12.166Z,308.50
2018-12-04T17:46:41.413Z,310.07
2018-12-04T17:49:10.473Z,319.77
2018-12-04T17:51:39.697Z,345.90
2018-12-04T17:54:08.511Z,349.17
2018-12-04T17:56:37.439Z,369.73
2018-12-04T17:59:06.490Z,340.70
2018-12-04T18:01:35.887Z,325.33
2018-12-04T18:04:04.861Z,300.47
2018-12-04T18:06:33.966Z,286.60
2018-12-04T18:09:04.873Z,290.67
2018-12-04T18:11:33.920Z,284.97
2018-12-04T18:14:03.013Z,277.90
2018-12-04T18:16:34.201Z,273.17
2018-12-04T18:19:05.275Z,254.77
2018-12-04T18:21:35.049Z,257.63
2018-12-04T18:24:04.984Z,259.13
2018-12-04T18:26:34.752Z,250.67
2018-12-04T18:29:04.770Z,256.07
2018-12-04T18:31:34.009Z,261.63
2018-12-04T18:34:03.374Z,268.13
2018-12-04T18:36:33.067Z,256.77
2018-12-04T18:39:02.263Z,256.50
2018-12-04T18:41:32.347Z,263.07
2018-12-04T18:44:02.221Z,239.60
2018-12-04T18:46:31.965Z,248.30
2018-12-04T18:49:00.963Z,236.07
2018-12-04T18:51:30.282Z,241.53
2018-12-04T18:53:59.281Z,229.30
2018-12-04T18:56:28.214Z,241.53
2018-12-04T18:58:57.329Z,210.70
2018-12-04T19:01:26.250Z,209.77
2018-12-04T19:03:55.100Z,192.37
2018-12-04T19:06:24.840Z,181.00
2018-12-04T19:08:53.752Z,178.47
2018-12-04T19:11:31.220Z,178.63
2018-12-04T19:14:00.110Z,181.43
2018-12-04T19:16:29.029Z,172.50
2018-12-04T19:18:57.982Z,193.23
2018-12-04T19:21:27.085Z,181.80
2018-12-04T19:23:55.903Z,162.17
2018-12-04T19:26:24.837Z,174.23
2018-12-04T19:28:53.959Z,168.20
2018-12-04T19:31:22.885Z,182.90
2018-12-04T19:33:52.773Z,171.67
2018-12-04T19:36:22.237Z,173.73
2018-12-04T19:38:52.617Z,171.27
2018-12-04T19:41:21.518Z,175.70
2018-12-04T19:43:56.339Z,166.10
2018-12-04T19:46:22.590Z,172.13
2018-12-04T19:48:51.905Z,150.23
2018-12-04T19:51:20.819Z,156.03
2018-12-04T19:53:49.900Z,168.43
2018-12-04T19:56:18.867Z,176.30
2018-12-04T19:58:47.774Z,171.27
2018-12-04T20:01:17.100Z,160.63
2018-12-04T20:03:46.002Z,161.03
2018-12-04T20:06:14.822Z,166.33
2018-12-04T20:08:52.166Z,178.77
2018-12-04T20:11:21.351Z,194.90
2018-12-04T20:13:50.467Z,182.13
2018-12-04T20:16:19.486Z,177.83
2018-12-04T20:18:48.425Z,199.40
2018-12-04T20:21:17.334Z,189.37
2018-12-04T20:23:46.785Z,189.13
2018-12-04T20:26:15.705Z,175.93
2018-12-04T20:28:44.756Z,161.97
2018-12-04T20:31:13.821Z,167.37
2018-12-04T20:33:43.116Z,156.73
2018-12-04T20:36:12.038Z,151.37
2018-12-04T20:38:41.837Z,150.50
2018-12-04T20:41:10.855Z,148.97
2018-12-04T20:43:40.093Z,149.67
2018-12-04T20:46:09.433Z,152.13
2018-12-04T20:48:38.378Z,147.40
2018-12-04T20:51:07.609Z,143.10
2018-12-04T20:53:36.422Z,123.77
2018-12-04T20:56:05.430Z,129.93
2018-12-04T20:58:34.336Z,122.17
2018-12-04T21:01:03.401Z,118.63
2018-12-04T21:03:32.605Z,112.47
2018-12-04T21:06:01.517Z,119.43
2018-12-04T21:08:30.517Z,116.23
2018-12-04T21:10:59.418Z,117.93
2018-12-04T21:13:28.448Z,112.40
2018-12-04T21:15:57.377Z,115.27
2018-12-04T21:18:26.381Z,122.53
2018-12-04T21:20:55.214Z,134.20
2018-12-04T21:23:24.129Z,141.67
2018-12-04T21:25:53.354Z,144.67
2018-12-04T21:28:22.842Z,145.33
2018-12-04T21:30:57.641Z,134.90
2018-12-04T21:33:32.169Z,121.50
2018-12-04T21:36:06.516Z,106.50
2018-12-04T21:38:40.981Z,107.30
2018-12-04T21:41:15.596Z,95.33
2018-12-04T21:43:50.043Z,93.73
2018-12-04T21:46:24.277Z,93.57
2018-12-04T21:48:53.199Z,84.23
2018-12-04T21:51:22.192Z,83.33
2018-12-04T21:53:50.998Z,86.33
2018-12-04T21:56:19.997Z,87.27
2018-12-04T21:58:49.102Z,87.40
2018-12-04T22:01:17.914Z,86.10
2018-12-04T22:03:47.068Z,83.00
2018-12-04T22:06:15.958Z,78.23
2018-12-04T22:08:44.801Z,76.67
2018-12-04T22:11:14.019Z,76.87
2018-12-04T22:13:42.934Z,78.53
2018-12-04T22:16:11.941Z,76.03
2018-12-04T22:18:40.866Z,73.83
2018-12-04T22:21:09.709Z,73.70
2018-12-04T22:23:38.590Z,70.50
2018-12-04T22:26:08.106Z,70.97
2018-12-04T22:28:37.026Z,71.40
2018-12-04T22:31:05.948Z,74.07
2018-12-04T22:33:34.843Z,74.30
2018-12-04T22:36:03.692Z,70.47
2018-12-04T22:38:32.727Z,71.33
2018-12-04T22:41:01.554Z,70.83
2018-12-04T22:43:30.566Z,69.17
2018-12-04T22:45:59.494Z,69.77
2018-12-04T22:48:28.412Z,71.03
2018-12-04T22:50:57.201Z,71.07
2018-12-04T22:53:26.001Z,70.43
2018-12-04T22:55:54.917Z,69.30
2018-12-04T22:58:23.826Z,69.37
2018-12-04T23:00:52.809Z,70.37
2018-12-04T23:03:23.477Z,69.70
2018-12-04T23:05:52.665Z,68.03
2018-12-04T23:08:21.506Z,66.50
2018-12-04T23:10:50.439Z,66.73
2018-12-04T23:13:19.393Z,59.40
2018-12-04T23:15:48.758Z,64.37
2018-12-04T23:18:17.561Z,69.50
2018-12-04T23:20:46.384Z,65.47
2018-12-04T23:23:15.384Z,69.77
2018-12-04T23:25:44.293Z,65.43
2018-12-04T23:28:13.204Z,64.50
2018-12-04T23:30:42.000Z,66.17
2018-12-04T23:33:10.822Z,67.00
2018-12-04T23:35:39.981Z,63.77
2018-12-04T23:38:08.832Z,60.03
2018-12-04T23:40:37.737Z,57.43
2018-12-04T23:43:06.556Z,57.90
2018-12-04T23:45:35.676Z,62.93
2018-12-04T23:48:04.708Z,61.67
2018-12-04T23:50:33.645Z,59.47
2018-12-04T23:53:02.543Z,62.77
2018-12-04T23:55:31.516Z,70.90
2018-12-04T23:58:00.579Z,67.57
